This is the latest recevied weather packets stored in our database for station/object SP2ARQ-13. If no packets are shown the sender has not sent any weather packets the latest 10 day(s).
| Time | Temp. | Humidity | Pressure | Rain* | Wind** | Luminosity | Snow |
|---|---|---|---|---|---|---|---|
| 1777219067 | 13.89° C | 27% | 1021.8 hPa | - | - | - | - |
| 1777218166 | 15.56° C | 26% | 1021.8 hPa | - | - | - | - |
| 1777217266 | 16.67° C | 25% | 1021.5 hPa | - | - | - | - |
| 1777216366 | 17.22° C | 27% | 1021.7 hPa | - | - | - | - |
| 1777215466 | 17.78° C | 24% | 1021.5 hPa | - | - | - | - |
| 1777215036 | 18.33° C | 26% | 1021.3 hPa | - | - | - | - |
| 1777213662 | 18.33° C | 25% | 1021.1 hPa | - | - | - | - |
| 1777212762 | 18.33° C | 26% | 1021 hPa | - | - | - | - |
| 1777211862 | 18.33° C | 27% | 1021 hPa | - | - | - | - |
| 1777210962 | 18.33° C | 26% | 1020.9 hPa | - | - | - | - |
| 1777210062 | 18.33° C | 26% | 1020.8 hPa | - | - | - | - |
| 1777209162 | 17.78° C | 28% | 1020.7 hPa | - | - | - | - |
| 1777208261 | 17.22° C | 29% | 1020.8 hPa | - | - | - | - |
| 1777207361 | 17.22° C | 29% | 1020.7 hPa | - | - | - | - |
| 1777206461 | 16.11° C | 31% | 1020.7 hPa | - | - | - | - |
| 1777205561 | 16.11° C | 29% | 1020.5 hPa | - | - | - | - |
| 1777204661 | 14.44° C | 33% | 1020.6 hPa | - | - | - | - |
| 1777203761 | 13.89° C | 33% | 1020.7 hPa | - | - | - | - |
| 1777202861 | 15° C | 34% | 1020.5 hPa | - | - | - | - |
| 1777201960 | 15° C | 36% | 1020.4 hPa | - | - | - | - |
| 1777201097 | 14.44° C | 36% | 1020.3 hPa | - | - | - | - |
| 1777200160 | 15° C | 34% | 1020.3 hPa | - | - | - | - |
| 1777199310 | 15° C | 33% | 1020.2 hPa | - | - | - | - |
| 1777197459 | 13.89° C | 37% | 1020 hPa | - | - | - | - |
| 1777196559 | 12.78° C | 40% | 1019.8 hPa | - | - | - | - |
* Rain since midnight (hover to see other rain measurements)
** Current wind speed in m/s (hover to see current wind gust speed)